sensor_id;sensor_type;location;lat;lon;timestamp;P1;durP1;ratioP1;P2;durP2;ratioP2
6973;SDS011;3527;52.376;8.990;2022-07-23T00:00:38;10.87;;;7.60;;
6973;SDS011;3527;52.376;8.990;2022-07-23T00:03:25;9.07;;;7.47;;
6973;SDS011;3527;52.376;8.990;2022-07-23T00:06:13;11.50;;;7.60;;
6973;SDS011;3527;52.376;8.990;2022-07-23T00:09:00;9.80;;;7.57;;
6973;SDS011;3527;52.376;8.990;2022-07-23T00:11:48;8.93;;;7.53;;
6973;SDS011;3527;52.376;8.990;2022-07-23T00:14:35;9.07;;;7.17;;
6973;SDS011;3527;52.376;8.990;2022-07-23T00:17:22;9.17;;;7.03;;
6973;SDS011;3527;52.376;8.990;2022-07-23T00:20:09;10.73;;;7.20;;
6973;SDS011;3527;52.376;8.990;2022-07-23T00:22:56;7.73;;;6.80;;
6973;SDS011;3527;52.376;8.990;2022-07-23T00:25:43;11.43;;;8.50;;
6973;SDS011;3527;52.376;8.990;2022-07-23T00:28:31;9.47;;;7.27;;
6973;SDS011;3527;52.376;8.990;2022-07-23T00:31:18;9.63;;;7.93;;
6973;SDS011;3527;52.376;8.990;2022-07-23T00:34:06;10.37;;;7.23;;
6973;SDS011;3527;52.376;8.990;2022-07-23T00:36:53;10.10;;;8.37;;
6973;SDS011;3527;52.376;8.990;2022-07-23T00:39:40;12.27;;;9.30;;
6973;SDS011;3527;52.376;8.990;2022-07-23T00:42:27;10.20;;;8.20;;
6973;SDS011;3527;52.376;8.990;2022-07-23T00:45:14;9.60;;;8.60;;
6973;SDS011;3527;52.376;8.990;2022-07-23T00:48:01;10.43;;;8.80;;
6973;SDS011;3527;52.376;8.990;2022-07-23T00:50:49;11.13;;;8.67;;
6973;SDS011;3527;52.376;8.990;2022-07-23T00:53:36;11.60;;;8.93;;
6973;SDS011;3527;52.376;8.990;2022-07-23T00:56:23;14.63;;;8.40;;
6973;SDS011;3527;52.376;8.990;2022-07-23T00:59:10;13.47;;;9.20;;
6973;SDS011;3527;52.376;8.990;2022-07-23T01:01:58;11.90;;;8.80;;
6973;SDS011;3527;52.376;8.990;2022-07-23T01:04:45;13.87;;;10.10;;
6973;SDS011;3527;52.376;8.990;2022-07-23T01:07:32;13.90;;;9.80;;
6973;SDS011;3527;52.376;8.990;2022-07-23T01:10:19;13.10;;;9.37;;
6973;SDS011;3527;52.376;8.990;2022-07-23T01:13:19;14.20;;;8.93;;
6973;SDS011;3527;52.376;8.990;2022-07-23T01:16:06;10.53;;;9.30;;
6973;SDS011;3527;52.376;8.990;2022-07-23T01:18:56;12.80;;;9.47;;
6973;SDS011;3527;52.376;8.990;2022-07-23T01:21:46;13.97;;;8.67;;
6973;SDS011;3527;52.376;8.990;2022-07-23T01:24:35;11.00;;;8.93;;
6973;SDS011;3527;52.376;8.990;2022-07-23T01:27:22;11.67;;;8.73;;
6973;SDS011;3527;52.376;8.990;2022-07-23T01:30:09;12.67;;;8.70;;
6973;SDS011;3527;52.376;8.990;2022-07-23T01:32:57;12.37;;;8.73;;
6973;SDS011;3527;52.376;8.990;2022-07-23T01:35:44;14.20;;;9.20;;
6973;SDS011;3527;52.376;8.990;2022-07-23T01:38:31;12.43;;;9.27;;
6973;SDS011;3527;52.376;8.990;2022-07-23T01:41:18;9.50;;;8.30;;
6973;SDS011;3527;52.376;8.990;2022-07-23T01:44:05;10.80;;;9.13;;
6973;SDS011;3527;52.376;8.990;2022-07-23T01:46:52;10.20;;;8.17;;
6973;SDS011;3527;52.376;8.990;2022-07-23T01:49:39;10.57;;;9.50;;
6973;SDS011;3527;52.376;8.990;2022-07-23T01:52:26;9.80;;;8.67;;
6973;SDS011;3527;52.376;8.990;2022-07-23T01:55:14;11.20;;;9.23;;
6973;SDS011;3527;52.376;8.990;2022-07-23T01:58:04;12.57;;;9.27;;
6973;SDS011;3527;52.376;8.990;2022-07-23T02:00:52;15.67;;;10.30;;
6973;SDS011;3527;52.376;8.990;2022-07-23T02:03:40;11.80;;;8.97;;
6973;SDS011;3527;52.376;8.990;2022-07-23T02:06:27;11.40;;;8.87;;
6973;SDS011;3527;52.376;8.990;2022-07-23T02:09:14;11.57;;;8.50;;
6973;SDS011;3527;52.376;8.990;2022-07-23T02:12:01;10.20;;;9.17;;
6973;SDS011;3527;52.376;8.990;2022-07-23T02:14:49;12.13;;;9.73;;
6973;SDS011;3527;52.376;8.990;2022-07-23T02:17:38;11.37;;;9.73;;
6973;SDS011;3527;52.376;8.990;2022-07-23T02:20:25;12.10;;;9.63;;
6973;SDS011;3527;52.376;8.990;2022-07-23T02:23:12;12.57;;;9.27;;
6973;SDS011;3527;52.376;8.990;2022-07-23T02:25:59;12.40;;;9.27;;
6973;SDS011;3527;52.376;8.990;2022-07-23T02:28:46;12.87;;;9.73;;
6973;SDS011;3527;52.376;8.990;2022-07-23T02:31:33;11.93;;;9.10;;
6973;SDS011;3527;52.376;8.990;2022-07-23T02:34:21;12.53;;;10.53;;
6973;SDS011;3527;52.376;8.990;2022-07-23T02:37:08;14.30;;;10.23;;
6973;SDS011;3527;52.376;8.990;2022-07-23T02:39:55;14.70;;;10.83;;
6973;SDS011;3527;52.376;8.990;2022-07-23T02:42:42;13.40;;;10.37;;
6973;SDS011;3527;52.376;8.990;2022-07-23T02:45:29;16.13;;;10.43;;
6973;SDS011;3527;52.376;8.990;2022-07-23T02:48:16;16.40;;;10.90;;
6973;SDS011;3527;52.376;8.990;2022-07-23T02:51:03;15.47;;;11.80;;
6973;SDS011;3527;52.376;8.990;2022-07-23T02:53:55;16.23;;;11.93;;
6973;SDS011;3527;52.376;8.990;2022-07-23T02:56:43;14.93;;;11.80;;
6973;SDS011;3527;52.376;8.990;2022-07-23T02:59:30;15.33;;;12.17;;
6973;SDS011;3527;52.376;8.990;2022-07-23T03:02:17;13.70;;;11.63;;
6973;SDS011;3527;52.376;8.990;2022-07-23T03:05:04;15.87;;;11.63;;
6973;SDS011;3527;52.376;8.990;2022-07-23T03:07:52;17.80;;;11.30;;
6973;SDS011;3527;52.376;8.990;2022-07-23T03:10:39;18.97;;;12.90;;
6973;SDS011;3527;52.376;8.990;2022-07-23T03:13:26;15.23;;;11.97;;
6973;SDS011;3527;52.376;8.990;2022-07-23T03:16:13;17.00;;;12.47;;
6973;SDS011;3527;52.376;8.990;2022-07-23T03:19:00;18.07;;;13.37;;
6973;SDS011;3527;52.376;8.990;2022-07-23T03:21:52;19.20;;;12.87;;
6973;SDS011;3527;52.376;8.990;2022-07-23T03:24:39;15.30;;;12.30;;
6973;SDS011;3527;52.376;8.990;2022-07-23T03:27:41;13.73;;;12.27;;
6973;SDS011;3527;52.376;8.990;2022-07-23T03:30:28;18.13;;;12.50;;
6973;SDS011;3527;52.376;8.990;2022-07-23T03:33:16;18.33;;;13.40;;
6973;SDS011;3527;52.376;8.990;2022-07-23T03:36:04;16.73;;;13.27;;
6973;SDS011;3527;52.376;8.990;2022-07-23T03:38:55;19.37;;;13.53;;
6973;SDS011;3527;52.376;8.990;2022-07-23T03:41:42;19.53;;;12.53;;
6973;SDS011;3527;52.376;8.990;2022-07-23T03:44:29;18.40;;;13.43;;
6973;SDS011;3527;52.376;8.990;2022-07-23T03:47:16;19.30;;;13.47;;
6973;SDS011;3527;52.376;8.990;2022-07-23T03:50:04;18.10;;;12.57;;
6973;SDS011;3527;52.376;8.990;2022-07-23T03:52:51;17.27;;;13.30;;
6973;SDS011;3527;52.376;8.990;2022-07-23T03:55:38;15.90;;;11.63;;
6973;SDS011;3527;52.376;8.990;2022-07-23T03:58:25;14.80;;;10.90;;
6973;SDS011;3527;52.376;8.990;2022-07-23T04:01:12;16.83;;;12.70;;
6973;SDS011;3527;52.376;8.990;2022-07-23T04:03:59;17.23;;;12.00;;
6973;SDS011;3527;52.376;8.990;2022-07-23T04:06:47;16.67;;;13.00;;
6973;SDS011;3527;52.376;8.990;2022-07-23T04:09:34;19.53;;;12.87;;
6973;SDS011;3527;52.376;8.990;2022-07-23T04:12:21;16.83;;;13.13;;
6973;SDS011;3527;52.376;8.990;2022-07-23T04:15:08;18.50;;;14.13;;
6973;SDS011;3527;52.376;8.990;2022-07-23T04:17:55;16.10;;;13.63;;
6973;SDS011;3527;52.376;8.990;2022-07-23T04:20:43;15.43;;;13.27;;
6973;SDS011;3527;52.376;8.990;2022-07-23T04:23:30;17.17;;;14.07;;
6973;SDS011;3527;52.376;8.990;2022-07-23T04:26:17;21.47;;;14.47;;
6973;SDS011;3527;52.376;8.990;2022-07-23T04:29:04;17.47;;;13.83;;
6973;SDS011;3527;52.376;8.990;2022-07-23T04:31:51;21.37;;;14.20;;
6973;SDS011;3527;52.376;8.990;2022-07-23T04:34:39;18.40;;;13.63;;
6973;SDS011;3527;52.376;8.990;2022-07-23T04:37:26;17.00;;;13.27;;
6973;SDS011;3527;52.376;8.990;2022-07-23T04:40:13;17.53;;;13.63;;
6973;SDS011;3527;52.376;8.990;2022-07-23T04:43:00;17.90;;;14.00;;
6973;SDS011;3527;52.376;8.990;2022-07-23T04:45:47;17.17;;;12.53;;
6973;SDS011;3527;52.376;8.990;2022-07-23T04:48:34;17.07;;;13.10;;
6973;SDS011;3527;52.376;8.990;2022-07-23T04:51:22;16.00;;;13.57;;
6973;SDS011;3527;52.376;8.990;2022-07-23T04:54:09;20.03;;;13.70;;
6973;SDS011;3527;52.376;8.990;2022-07-23T04:56:56;17.00;;;12.87;;
6973;SDS011;3527;52.376;8.990;2022-07-23T04:59:43;21.33;;;14.07;;
6973;SDS011;3527;52.376;8.990;2022-07-23T05:02:30;17.37;;;12.93;;
6973;SDS011;3527;52.376;8.990;2022-07-23T05:05:17;15.47;;;13.47;;
6973;SDS011;3527;52.376;8.990;2022-07-23T05:08:04;18.30;;;13.87;;
6973;SDS011;3527;52.376;8.990;2022-07-23T05:10:51;18.20;;;14.47;;
6973;SDS011;3527;52.376;8.990;2022-07-23T05:13:38;18.33;;;14.20;;
6973;SDS011;3527;52.376;8.990;2022-07-23T05:16:25;17.93;;;13.97;;
6973;SDS011;3527;52.376;8.990;2022-07-23T05:19:12;16.77;;;13.77;;
6973;SDS011;3527;52.376;8.990;2022-07-23T05:22:00;23.33;;;14.90;;
6973;SDS011;3527;52.376;8.990;2022-07-23T05:24:47;17.60;;;13.70;;
6973;SDS011;3527;52.376;8.990;2022-07-23T05:27:34;23.53;;;14.13;;
6973;SDS011;3527;52.376;8.990;2022-07-23T05:30:21;18.00;;;14.77;;
6973;SDS011;3527;52.376;8.990;2022-07-23T05:33:09;18.77;;;14.03;;
6973;SDS011;3527;52.376;8.990;2022-07-23T05:36:02;18.57;;;13.60;;
6973;SDS011;3527;52.376;8.990;2022-07-23T05:38:49;16.53;;;13.50;;
6973;SDS011;3527;52.376;8.990;2022-07-23T05:41:36;17.33;;;14.53;;
6973;SDS011;3527;52.376;8.990;2022-07-23T05:44:23;19.53;;;13.83;;
6973;SDS011;3527;52.376;8.990;2022-07-23T05:47:11;19.37;;;14.00;;
6973;SDS011;3527;52.376;8.990;2022-07-23T05:49:58;15.93;;;13.10;;
6973;SDS011;3527;52.376;8.990;2022-07-23T05:52:49;17.80;;;13.77;;
6973;SDS011;3527;52.376;8.990;2022-07-23T05:55:36;19.53;;;14.10;;
6973;SDS011;3527;52.376;8.990;2022-07-23T05:58:23;17.60;;;13.77;;
6973;SDS011;3527;52.376;8.990;2022-07-23T06:01:10;15.27;;;13.03;;
6973;SDS011;3527;52.376;8.990;2022-07-23T06:04:00;15.03;;;12.17;;
6973;SDS011;3527;52.376;8.990;2022-07-23T06:06:48;15.17;;;12.17;;
6973;SDS011;3527;52.376;8.990;2022-07-23T06:09:35;15.23;;;11.50;;
6973;SDS011;3527;52.376;8.990;2022-07-23T06:12:22;15.97;;;10.63;;
6973;SDS011;3527;52.376;8.990;2022-07-23T06:15:09;15.90;;;10.17;;
6973;SDS011;3527;52.376;8.990;2022-07-23T06:17:57;16.90;;;10.63;;
6973;SDS011;3527;52.376;8.990;2022-07-23T06:20:44;10.67;;;8.53;;
6973;SDS011;3527;52.376;8.990;2022-07-23T06:23:36;12.70;;;9.07;;
6973;SDS011;3527;52.376;8.990;2022-07-23T06:26:23;9.63;;;8.07;;
6973;SDS011;3527;52.376;8.990;2022-07-23T06:29:10;12.27;;;8.60;;
6973;SDS011;3527;52.376;8.990;2022-07-23T06:31:57;10.37;;;8.87;;
6973;SDS011;3527;52.376;8.990;2022-07-23T06:34:44;14.17;;;8.37;;
6973;SDS011;3527;52.376;8.990;2022-07-23T06:37:34;12.27;;;7.77;;
6973;SDS011;3527;52.376;8.990;2022-07-23T06:40:21;11.70;;;8.50;;
6973;SDS011;3527;52.376;8.990;2022-07-23T06:43:08;11.10;;;7.77;;
6973;SDS011;3527;52.376;8.990;2022-07-23T06:45:55;11.27;;;7.40;;
6973;SDS011;3527;52.376;8.990;2022-07-23T06:48:42;8.30;;;6.63;;
6973;SDS011;3527;52.376;8.990;2022-07-23T06:51:29;8.30;;;5.87;;
6973;SDS011;3527;52.376;8.990;2022-07-23T06:54:17;7.77;;;5.80;;
6973;SDS011;3527;52.376;8.990;2022-07-23T06:57:04;9.03;;;6.10;;
6973;SDS011;3527;52.376;8.990;2022-07-23T06:59:51;6.87;;;5.80;;
6973;SDS011;3527;52.376;8.990;2022-07-23T07:02:41;9.43;;;5.60;;
6973;SDS011;3527;52.376;8.990;2022-07-23T07:05:28;8.37;;;4.83;;
6973;SDS011;3527;52.376;8.990;2022-07-23T07:08:15;8.40;;;5.43;;
6973;SDS011;3527;52.376;8.990;2022-07-23T07:11:02;8.87;;;5.27;;
6973;SDS011;3527;52.376;8.990;2022-07-23T07:13:49;8.00;;;5.30;;
6973;SDS011;3527;52.376;8.990;2022-07-23T07:16:36;8.07;;;4.60;;
6973;SDS011;3527;52.376;8.990;2022-07-23T07:19:23;8.50;;;5.10;;
6973;SDS011;3527;52.376;8.990;2022-07-23T07:22:10;7.37;;;4.70;;
6973;SDS011;3527;52.376;8.990;2022-07-23T07:24:57;6.20;;;4.60;;
6973;SDS011;3527;52.376;8.990;2022-07-23T07:27:44;9.27;;;5.33;;
6973;SDS011;3527;52.376;8.990;2022-07-23T07:30:31;5.93;;;4.80;;
6973;SDS011;3527;52.376;8.990;2022-07-23T07:33:20;9.80;;;4.63;;
6973;SDS011;3527;52.376;8.990;2022-07-23T07:36:07;7.37;;;4.53;;
6973;SDS011;3527;52.376;8.990;2022-07-23T07:38:55;6.97;;;4.70;;
6973;SDS011;3527;52.376;8.990;2022-07-23T07:41:42;7.10;;;4.70;;
6973;SDS011;3527;52.376;8.990;2022-07-23T07:44:29;4.90;;;4.20;;
6973;SDS011;3527;52.376;8.990;2022-07-23T07:47:16;7.47;;;4.77;;
6973;SDS011;3527;52.376;8.990;2022-07-23T07:50:03;6.20;;;4.73;;
6973;SDS011;3527;52.376;8.990;2022-07-23T07:52:52;6.17;;;5.00;;
6973;SDS011;3527;52.376;8.990;2022-07-23T07:55:39;5.77;;;4.60;;
6973;SDS011;3527;52.376;8.990;2022-07-23T07:58:26;5.50;;;4.60;;
6973;SDS011;3527;52.376;8.990;2022-07-23T08:01:14;6.23;;;4.43;;
6973;SDS011;3527;52.376;8.990;2022-07-23T08:04:01;8.07;;;4.47;;
6973;SDS011;3527;52.376;8.990;2022-07-23T08:06:49;4.63;;;3.60;;
6973;SDS011;3527;52.376;8.990;2022-07-23T08:09:36;7.17;;;4.27;;
6973;SDS011;3527;52.376;8.990;2022-07-23T08:12:23;6.40;;;3.87;;
6973;SDS011;3527;52.376;8.990;2022-07-23T08:15:10;5.60;;;3.50;;
6973;SDS011;3527;52.376;8.990;2022-07-23T08:17:59;8.03;;;4.00;;
6973;SDS011;3527;52.376;8.990;2022-07-23T08:20:47;6.90;;;4.17;;
6973;SDS011;3527;52.376;8.990;2022-07-23T08:23:34;6.37;;;3.87;;
6973;SDS011;3527;52.376;8.990;2022-07-23T08:26:21;5.67;;;3.73;;
6973;SDS011;3527;52.376;8.990;2022-07-23T08:29:08;4.80;;;3.60;;
6973;SDS011;3527;52.376;8.990;2022-07-23T08:31:55;6.93;;;3.70;;
6973;SDS011;3527;52.376;8.990;2022-07-23T08:34:42;6.73;;;3.50;;
6973;SDS011;3527;52.376;8.990;2022-07-23T08:37:30;4.73;;;3.20;;
6973;SDS011;3527;52.376;8.990;2022-07-23T08:40:17;5.57;;;2.60;;
6973;SDS011;3527;52.376;8.990;2022-07-23T08:43:06;5.00;;;2.83;;
6973;SDS011;3527;52.376;8.990;2022-07-23T08:45:58;3.67;;;2.20;;
6973;SDS011;3527;52.376;8.990;2022-07-23T08:48:48;4.83;;;2.70;;
6973;SDS011;3527;52.376;8.990;2022-07-23T08:51:35;3.60;;;2.60;;
6973;SDS011;3527;52.376;8.990;2022-07-23T08:54:23;3.07;;;2.40;;
6973;SDS011;3527;52.376;8.990;2022-07-23T08:57:10;4.63;;;2.40;;
6973;SDS011;3527;52.376;8.990;2022-07-23T08:59:57;3.53;;;2.30;;
6973;SDS011;3527;52.376;8.990;2022-07-23T09:02:45;4.30;;;2.40;;
6973;SDS011;3527;52.376;8.990;2022-07-23T09:05:32;3.17;;;2.40;;
6973;SDS011;3527;52.376;8.990;2022-07-23T09:08:20;5.23;;;2.63;;
6973;SDS011;3527;52.376;8.990;2022-07-23T09:11:10;2.60;;;2.00;;
6973;SDS011;3527;52.376;8.990;2022-07-23T09:13:59;3.33;;;2.00;;
6973;SDS011;3527;52.376;8.990;2022-07-23T09:16:48;5.50;;;2.13;;
6973;SDS011;3527;52.376;8.990;2022-07-23T09:19:35;3.37;;;2.10;;
6973;SDS011;3527;52.376;8.990;2022-07-23T09:22:24;3.80;;;1.70;;
6973;SDS011;3527;52.376;8.990;2022-07-23T09:25:15;3.93;;;1.90;;
6973;SDS011;3527;52.376;8.990;2022-07-23T09:28:03;4.43;;;1.60;;
6973;SDS011;3527;52.376;8.990;2022-07-23T09:30:53;3.27;;;1.90;;
6973;SDS011;3527;52.376;8.990;2022-07-23T09:33:42;4.03;;;2.00;;
6973;SDS011;3527;52.376;8.990;2022-07-23T09:36:29;3.07;;;2.07;;
6973;SDS011;3527;52.376;8.990;2022-07-23T09:39:21;4.37;;;1.67;;
6973;SDS011;3527;52.376;8.990;2022-07-23T09:42:20;3.87;;;1.90;;
6973;SDS011;3527;52.376;8.990;2022-07-23T09:45:12;2.50;;;1.50;;
6973;SDS011;3527;52.376;8.990;2022-07-23T09:48:12;4.17;;;1.80;;
6973;SDS011;3527;52.376;8.990;2022-07-23T09:51:04;3.00;;;1.63;;
6973;SDS011;3527;52.376;8.990;2022-07-23T09:53:52;2.83;;;1.70;;
6973;SDS011;3527;52.376;8.990;2022-07-23T09:56:39;3.57;;;1.50;;
6973;SDS011;3527;52.376;8.990;2022-07-23T09:59:28;3.67;;;1.40;;
6973;SDS011;3527;52.376;8.990;2022-07-23T10:02:17;1.65;;;1.40;;
6973;SDS011;3527;52.376;8.990;2022-07-23T10:05:08;2.88;;;1.48;;
6973;SDS011;3527;52.376;8.990;2022-07-23T10:07:56;3.55;;;1.50;;
6973;SDS011;3527;52.376;8.990;2022-07-23T10:10:46;3.22;;;1.30;;
6973;SDS011;3527;52.376;8.990;2022-07-23T10:13:33;4.57;;;1.50;;
6973;SDS011;3527;52.376;8.990;2022-07-23T10:16:41;1.90;;;1.23;;
6973;SDS011;3527;52.376;8.990;2022-07-23T10:19:30;1.83;;;1.30;;
6973;SDS011;3527;52.376;8.990;2022-07-23T10:22:19;2.83;;;1.60;;
6973;SDS011;3527;52.376;8.990;2022-07-23T10:25:22;3.03;;;1.50;;
6973;SDS011;3527;52.376;8.990;2022-07-23T10:34:55;3.63;;;1.67;;
6973;SDS011;3527;52.376;8.990;2022-07-23T10:37:51;3.33;;;1.80;;
6973;SDS011;3527;52.376;8.990;2022-07-23T10:41:03;4.00;;;1.77;;
6973;SDS011;3527;52.376;8.990;2022-07-23T10:44:32;3.20;;;1.53;;
6973;SDS011;3527;52.376;8.990;2022-07-23T10:47:07;3.57;;;1.67;;
6973;SDS011;3527;52.376;8.990;2022-07-23T10:50:25;3.57;;;1.53;;
6973;SDS011;3527;52.376;8.990;2022-07-23T10:53:18;3.47;;;1.20;;
6973;SDS011;3527;52.376;8.990;2022-07-23T10:56:05;4.40;;;1.50;;
6973;SDS011;3527;52.376;8.990;2022-07-23T10:58:52;2.83;;;1.43;;
6973;SDS011;3527;52.376;8.990;2022-07-23T11:01:40;1.60;;;1.20;;
6973;SDS011;3527;52.376;8.990;2022-07-23T11:05:01;4.38;;;1.25;;
6973;SDS011;3527;52.376;8.990;2022-07-23T11:13:50;3.78;;;1.30;;
6973;SDS011;3527;52.376;8.990;2022-07-23T11:16:45;3.10;;;1.20;;
6973;SDS011;3527;52.376;8.990;2022-07-23T11:19:57;1.58;;;1.23;;
6973;SDS011;3527;52.376;8.990;2022-07-23T11:23:02;4.03;;;1.20;;
6973;SDS011;3527;52.376;8.990;2022-07-23T11:25:50;1.97;;;1.30;;
6973;SDS011;3527;52.376;8.990;2022-07-23T11:28:37;2.57;;;1.20;;
6973;SDS011;3527;52.376;8.990;2022-07-23T11:31:24;3.80;;;1.30;;
6973;SDS011;3527;52.376;8.990;2022-07-23T11:37:37;2.50;;;1.15;;
6973;SDS011;3527;52.376;8.990;2022-07-23T11:40:25;2.08;;;1.10;;
6973;SDS011;3527;52.376;8.990;2022-07-23T11:43:13;1.20;;;1.00;;
6973;SDS011;3527;52.376;8.990;2022-07-23T11:46:00;2.03;;;1.13;;
6973;SDS011;3527;52.376;8.990;2022-07-23T11:49:00;1.63;;;1.10;;
6973;SDS011;3527;52.376;8.990;2022-07-23T11:52:05;2.17;;;1.10;;
6973;SDS011;3527;52.376;8.990;2022-07-23T11:55:04;2.17;;;1.30;;
6973;SDS011;3527;52.376;8.990;2022-07-23T11:57:56;1.35;;;1.00;;
6973;SDS011;3527;52.376;8.990;2022-07-23T12:00:45;2.30;;;1.13;;
6973;SDS011;3527;52.376;8.990;2022-07-23T12:03:33;1.40;;;1.00;;
6973;SDS011;3527;52.376;8.990;2022-07-23T12:06:20;3.25;;;1.30;;
6973;SDS011;3527;52.376;8.990;2022-07-23T12:09:07;2.57;;;1.03;;
6973;SDS011;3527;52.376;8.990;2022-07-23T12:11:57;3.43;;;1.40;;
6973;SDS011;3527;52.376;8.990;2022-07-23T12:14:50;3.83;;;1.27;;
6973;SDS011;3527;52.376;8.990;2022-07-23T12:17:39;2.08;;;1.10;;
6973;SDS011;3527;52.376;8.990;2022-07-23T12:20:38;2.03;;;1.13;;
6973;SDS011;3527;52.376;8.990;2022-07-23T12:23:30;3.25;;;1.20;;
6973;SDS011;3527;52.376;8.990;2022-07-23T12:26:17;1.70;;;0.98;;
6973;SDS011;3527;52.376;8.990;2022-07-23T12:29:04;2.90;;;1.20;;
6973;SDS011;3527;52.376;8.990;2022-07-23T12:31:51;1.83;;;1.00;;
6973;SDS011;3527;52.376;8.990;2022-07-23T12:34:38;3.63;;;1.42;;
6973;SDS011;3527;52.376;8.990;2022-07-23T12:37:28;2.03;;;1.02;;
6973;SDS011;3527;52.376;8.990;2022-07-23T12:40:19;2.42;;;1.15;;
6973;SDS011;3527;52.376;8.990;2022-07-23T12:43:18;1.95;;;1.20;;
6973;SDS011;3527;52.376;8.990;2022-07-23T12:46:12;2.47;;;1.02;;
6973;SDS011;3527;52.376;8.990;2022-07-23T12:49:07;3.75;;;1.35;;
6973;SDS011;3527;52.376;8.990;2022-07-23T12:51:57;1.75;;;1.15;;
6973;SDS011;3527;52.376;8.990;2022-07-23T12:54:44;3.47;;;1.23;;
6973;SDS011;3527;52.376;8.990;2022-07-23T12:57:46;2.97;;;1.30;;
6973;SDS011;3527;52.376;8.990;2022-07-23T13:00:52;1.98;;;1.15;;
6973;SDS011;3527;52.376;8.990;2022-07-23T13:03:41;1.52;;;1.05;;
6973;SDS011;3527;52.376;8.990;2022-07-23T13:06:30;2.65;;;0.95;;
6973;SDS011;3527;52.376;8.990;2022-07-23T13:09:22;3.38;;;1.30;;
6973;SDS011;3527;52.376;8.990;2022-07-23T13:12:11;1.83;;;1.15;;
6973;SDS011;3527;52.376;8.990;2022-07-23T13:14:58;2.90;;;1.30;;
6973;SDS011;3527;52.376;8.990;2022-07-23T13:17:45;2.67;;;1.52;;
6973;SDS011;3527;52.376;8.990;2022-07-23T13:20:34;1.75;;;1.10;;
6973;SDS011;3527;52.376;8.990;2022-07-23T13:23:22;2.45;;;1.17;;
6973;SDS011;3527;52.376;8.990;2022-07-23T13:26:11;2.35;;;1.20;;
6973;SDS011;3527;52.376;8.990;2022-07-23T13:28:58;1.30;;;1.10;;
6973;SDS011;3527;52.376;8.990;2022-07-23T13:31:48;3.65;;;1.25;;
6973;SDS011;3527;52.376;8.990;2022-07-23T13:34:36;2.33;;;1.20;;
6973;SDS011;3527;52.376;8.990;2022-07-23T13:37:26;2.40;;;1.20;;
6973;SDS011;3527;52.376;8.990;2022-07-23T13:40:13;1.50;;;1.00;;
6973;SDS011;3527;52.376;8.990;2022-07-23T13:43:04;2.10;;;1.20;;
6973;SDS011;3527;52.376;8.990;2022-07-23T13:45:54;2.03;;;1.10;;
6973;SDS011;3527;52.376;8.990;2022-07-23T13:48:41;3.40;;;1.00;;
6973;SDS011;3527;52.376;8.990;2022-07-23T13:51:28;1.63;;;0.75;;
6973;SDS011;3527;52.376;8.990;2022-07-23T13:54:15;2.45;;;1.10;;
6973;SDS011;3527;52.376;8.990;2022-07-23T13:57:03;4.40;;;1.35;;
6973;SDS011;3527;52.376;8.990;2022-07-23T13:59:51;1.83;;;0.90;;
6973;SDS011;3527;52.376;8.990;2022-07-23T14:02:38;3.60;;;1.20;;
6973;SDS011;3527;52.376;8.990;2022-07-23T14:05:28;1.90;;;1.10;;
6973;SDS011;3527;52.376;8.990;2022-07-23T14:08:16;1.95;;;1.00;;
6973;SDS011;3527;52.376;8.990;2022-07-23T14:11:07;3.00;;;1.05;;
6973;SDS011;3527;52.376;8.990;2022-07-23T14:13:54;1.88;;;1.00;;
6973;SDS011;3527;52.376;8.990;2022-07-23T14:16:41;2.42;;;0.90;;
6973;SDS011;3527;52.376;8.990;2022-07-23T14:19:29;2.72;;;1.02;;
6973;SDS011;3527;52.376;8.990;2022-07-23T14:22:16;1.35;;;0.80;;
6973;SDS011;3527;52.376;8.990;2022-07-23T14:25:07;1.63;;;0.70;;
6973;SDS011;3527;52.376;8.990;2022-07-23T14:27:55;1.55;;;0.93;;
6973;SDS011;3527;52.376;8.990;2022-07-23T14:30:42;1.30;;;0.95;;
6973;SDS011;3527;52.376;8.990;2022-07-23T14:33:30;2.70;;;1.10;;
6973;SDS011;3527;52.376;8.990;2022-07-23T14:36:17;4.13;;;0.90;;
6973;SDS011;3527;52.376;8.990;2022-07-23T14:39:05;1.48;;;0.80;;
6973;SDS011;3527;52.376;8.990;2022-07-23T14:41:55;2.70;;;1.00;;
6973;SDS011;3527;52.376;8.990;2022-07-23T14:44:43;2.47;;;0.90;;
6973;SDS011;3527;52.376;8.990;2022-07-23T14:47:30;1.90;;;0.90;;
6973;SDS011;3527;52.376;8.990;2022-07-23T14:50:17;4.53;;;1.10;;
6973;SDS011;3527;52.376;8.990;2022-07-23T14:53:04;3.08;;;1.10;;
6973;SDS011;3527;52.376;8.990;2022-07-23T14:55:52;1.55;;;0.90;;
6973;SDS011;3527;52.376;8.990;2022-07-23T14:58:41;2.78;;;1.10;;
6973;SDS011;3527;52.376;8.990;2022-07-23T15:01:28;1.75;;;1.00;;
6973;SDS011;3527;52.376;8.990;2022-07-23T15:04:15;2.38;;;1.20;;
6973;SDS011;3527;52.376;8.990;2022-07-23T15:07:23;2.85;;;1.00;;
6973;SDS011;3527;52.376;8.990;2022-07-23T15:10:12;2.42;;;1.08;;
6973;SDS011;3527;52.376;8.990;2022-07-23T15:13:00;2.10;;;1.00;;
6973;SDS011;3527;52.376;8.990;2022-07-23T15:15:47;1.02;;;0.93;;
6973;SDS011;3527;52.376;8.990;2022-07-23T15:18:40;1.80;;;1.10;;
6973;SDS011;3527;52.376;8.990;2022-07-23T15:21:28;3.15;;;1.17;;
6973;SDS011;3527;52.376;8.990;2022-07-23T15:24:18;1.40;;;1.00;;
6973;SDS011;3527;52.376;8.990;2022-07-23T15:27:05;1.70;;;0.82;;
6973;SDS011;3527;52.376;8.990;2022-07-23T15:29:53;2.10;;;1.30;;
6973;SDS011;3527;52.376;8.990;2022-07-23T15:32:40;1.80;;;1.10;;
6973;SDS011;3527;52.376;8.990;2022-07-23T15:35:27;1.63;;;1.00;;
6973;SDS011;3527;52.376;8.990;2022-07-23T15:38:16;2.17;;;1.15;;
6973;SDS011;3527;52.376;8.990;2022-07-23T15:41:11;1.35;;;1.00;;
6973;SDS011;3527;52.376;8.990;2022-07-23T15:43:58;5.38;;;1.25;;
6973;SDS011;3527;52.376;8.990;2022-07-23T15:46:46;1.73;;;1.05;;
6973;SDS011;3527;52.376;8.990;2022-07-23T15:49:33;2.15;;;0.95;;
6973;SDS011;3527;52.376;8.990;2022-07-23T15:52:21;2.78;;;1.10;;
6973;SDS011;3527;52.376;8.990;2022-07-23T15:55:09;1.85;;;1.20;;
6973;SDS011;3527;52.376;8.990;2022-07-23T15:58:02;1.80;;;1.20;;
6973;SDS011;3527;52.376;8.990;2022-07-23T16:00:51;2.10;;;1.33;;
6973;SDS011;3527;52.376;8.990;2022-07-23T16:03:38;1.30;;;1.00;;
6973;SDS011;3527;52.376;8.990;2022-07-23T16:06:26;2.38;;;1.17;;
6973;SDS011;3527;52.376;8.990;2022-07-23T16:09:14;2.10;;;1.17;;
6973;SDS011;3527;52.376;8.990;2022-07-23T16:12:05;2.50;;;1.02;;
6973;SDS011;3527;52.376;8.990;2022-07-23T16:14:52;5.18;;;1.27;;
6973;SDS011;3527;52.376;8.990;2022-07-23T16:17:39;1.50;;;0.93;;
6973;SDS011;3527;52.376;8.990;2022-07-23T16:20:26;2.67;;;1.00;;
6973;SDS011;3527;52.376;8.990;2022-07-23T16:23:14;1.65;;;1.20;;
6973;SDS011;3527;52.376;8.990;2022-07-23T16:26:00;4.53;;;1.25;;
6973;SDS011;3527;52.376;8.990;2022-07-23T16:28:47;1.35;;;0.90;;
6973;SDS011;3527;52.376;8.990;2022-07-23T16:31:35;2.88;;;1.15;;
6973;SDS011;3527;52.376;8.990;2022-07-23T16:34:22;2.28;;;0.88;;
6973;SDS011;3527;52.376;8.990;2022-07-23T16:37:09;1.70;;;1.10;;
6973;SDS011;3527;52.376;8.990;2022-07-23T16:39:57;1.27;;;0.95;;
6973;SDS011;3527;52.376;8.990;2022-07-23T16:42:44;2.10;;;1.15;;
6973;SDS011;3527;52.376;8.990;2022-07-23T16:45:31;1.20;;;0.93;;
6973;SDS011;3527;52.376;8.990;2022-07-23T16:48:18;2.30;;;1.20;;
6973;SDS011;3527;52.376;8.990;2022-07-23T16:51:06;1.30;;;1.20;;
6973;SDS011;3527;52.376;8.990;2022-07-23T16:53:53;2.17;;;0.90;;
6973;SDS011;3527;52.376;8.990;2022-07-23T16:56:42;3.40;;;1.05;;
6973;SDS011;3527;52.376;8.990;2022-07-23T16:59:29;1.40;;;1.00;;
6973;SDS011;3527;52.376;8.990;2022-07-23T17:02:16;1.38;;;1.20;;
6973;SDS011;3527;52.376;8.990;2022-07-23T17:05:03;1.98;;;1.10;;
6973;SDS011;3527;52.376;8.990;2022-07-23T17:07:52;1.30;;;0.90;;
6973;SDS011;3527;52.376;8.990;2022-07-23T17:10:42;2.00;;;1.00;;
6973;SDS011;3527;52.376;8.990;2022-07-23T17:13:30;2.95;;;1.30;;
6973;SDS011;3527;52.376;8.990;2022-07-23T17:16:17;1.63;;;1.00;;
6973;SDS011;3527;52.376;8.990;2022-07-23T17:19:07;1.65;;;1.10;;
6973;SDS011;3527;52.376;8.990;2022-07-23T17:21:54;1.38;;;1.00;;
6973;SDS011;3527;52.376;8.990;2022-07-23T17:24:41;1.50;;;0.98;;
6973;SDS011;3527;52.376;8.990;2022-07-23T17:27:31;2.30;;;1.23;;
6973;SDS011;3527;52.376;8.990;2022-07-23T17:30:18;2.90;;;1.00;;
6973;SDS011;3527;52.376;8.990;2022-07-23T17:33:06;1.30;;;0.95;;
6973;SDS011;3527;52.376;8.990;2022-07-23T17:35:53;1.60;;;1.10;;